sensor_id;sensor_type;location;lat;lon;timestamp;pressure;altitude;pressure_sealevel;temperature;humidity
63090;BME280;49174;43.198;27.824;2022-12-18T03:34:50;102478.53;;;9.90;84.14
63090;BME280;49174;43.198;27.824;2022-12-18T03:37:17;102479.38;;;9.90;83.71
63090;BME280;49174;43.198;27.824;2022-12-18T03:39:43;102489.84;;;9.93;83.72
63090;BME280;49174;43.198;27.824;2022-12-18T03:42:20;102487.59;;;9.89;83.50
63090;BME280;49174;43.198;27.824;2022-12-18T05:08:39;102687.56;;;8.56;79.29
63090;BME280;49174;43.198;27.824;2022-12-18T05:11:08;102693.91;;;8.55;78.88
63090;BME280;49174;43.198;27.824;2022-12-18T05:13:35;102700.31;;;8.54;78.52
63090;BME280;49174;43.198;27.824;2022-12-18T05:16:02;102695.19;;;8.51;79.24
63090;BME280;49174;43.198;27.824;2022-12-18T05:26:34;102736.81;;;8.47;79.21
63090;BME280;49174;43.198;27.824;2022-12-18T05:28:59;102743.09;;;8.36;79.49
63090;BME280;49174;43.198;27.824;2022-12-18T05:31:25;102757.59;;;8.24;79.83
63090;BME280;49174;43.198;27.824;2022-12-18T05:33:51;102755.59;;;8.16;79.77
63090;BME280;49174;43.198;27.824;2022-12-18T05:36:17;102761.63;;;8.09;79.70
63090;BME280;49174;43.198;27.824;2022-12-18T05:49:27;102784.19;;;7.64;80.17
63090;BME280;49174;43.198;27.824;2022-12-18T05:52:13;102800.81;;;7.58;79.38
63090;BME280;49174;43.198;27.824;2022-12-18T05:54:44;102810.09;;;7.54;79.75
63090;BME280;49174;43.198;27.824;2022-12-18T05:57:34;102825.88;;;7.47;79.38
63090;BME280;49174;43.198;27.824;2022-12-18T06:00:15;102832.19;;;7.46;79.31
63090;BME280;49174;43.198;27.824;2022-12-18T06:02:47;102839.53;;;7.44;78.17
63090;BME280;49174;43.198;27.824;2022-12-18T06:09:17;102859.31;;;7.43;78.18
63090;BME280;49174;43.198;27.824;2022-12-18T06:11:47;102867.38;;;7.43;78.42
63090;BME280;49174;43.198;27.824;2022-12-18T06:25:31;102913.50;;;7.59;78.76
63090;BME280;49174;43.198;27.824;2022-12-18T06:27:56;102923.75;;;7.66;78.96
63090;BME280;49174;43.198;27.824;2022-12-18T06:30:22;102936.56;;;7.73;77.84
63090;BME280;49174;43.198;27.824;2022-12-18T06:32:48;102949.00;;;7.74;77.55
63090;BME280;49174;43.198;27.824;2022-12-18T06:35:15;102943.88;;;7.82;76.48
63090;BME280;49174;43.198;27.824;2022-12-18T06:37:41;102944.97;;;7.80;77.50
63090;BME280;49174;43.198;27.824;2022-12-18T06:40:06;102954.63;;;7.82;76.67
63090;BME280;49174;43.198;27.824;2022-12-18T06:42:36;102955.88;;;7.78;77.21
63090;BME280;49174;43.198;27.824;2022-12-18T06:45:01;102957.81;;;7.76;76.91
63090;BME280;49174;43.198;27.824;2022-12-18T06:47:27;102970.50;;;7.74;76.02
63090;BME280;49174;43.198;27.824;2022-12-18T06:49:53;102972.34;;;7.74;76.73
63090;BME280;49174;43.198;27.824;2022-12-18T06:52:19;102981.66;;;7.70;76.63
63090;BME280;49174;43.198;27.824;2022-12-18T06:54:44;102982.84;;;7.66;76.10
63090;BME280;49174;43.198;27.824;2022-12-18T06:57:10;102995.44;;;7.54;75.98
63090;BME280;49174;43.198;27.824;2022-12-18T06:59:36;103000.47;;;7.47;76.76
63090;BME280;49174;43.198;27.824;2022-12-18T07:02:01;103000.94;;;7.41;76.69
63090;BME280;49174;43.198;27.824;2022-12-18T07:04:30;102995.31;;;7.33;76.51
63090;BME280;49174;43.198;27.824;2022-12-18T07:06:55;102996.28;;;7.32;76.76
63090;BME280;49174;43.198;27.824;2022-12-18T07:09:21;102999.22;;;7.29;77.81
63090;BME280;49174;43.198;27.824;2022-12-18T07:11:47;103001.03;;;7.28;78.45
63090;BME280;49174;43.198;27.824;2022-12-18T07:14:12;103010.69;;;7.31;78.30
63090;BME280;49174;43.198;27.824;2022-12-18T07:16:38;103022.38;;;7.30;78.28
63090;BME280;49174;43.198;27.824;2022-12-18T07:19:03;103031.19;;;7.32;78.88
63090;BME280;49174;43.198;27.824;2022-12-18T07:21:29;103040.72;;;7.36;79.04
63090;BME280;49174;43.198;27.824;2022-12-18T07:23:57;103036.31;;;7.35;78.24
63090;BME280;49174;43.198;27.824;2022-12-18T07:26:23;103035.59;;;7.33;79.58
63090;BME280;49174;43.198;27.824;2022-12-18T07:28:49;103043.66;;;7.33;79.48
63090;BME280;49174;43.198;27.824;2022-12-18T07:31:17;103051.94;;;7.30;78.84
63090;BME280;49174;43.198;27.824;2022-12-18T07:33:44;103055.13;;;7.35;79.58
63090;BME280;49174;43.198;27.824;2022-12-18T07:36:10;103053.41;;;7.34;78.76
63090;BME280;49174;43.198;27.824;2022-12-18T07:38:36;103064.91;;;7.36;79.76
63090;BME280;49174;43.198;27.824;2022-12-18T07:41:05;103055.84;;;7.37;80.36
63090;BME280;49174;43.198;27.824;2022-12-18T07:43:31;103057.56;;;7.38;80.20
63090;BME280;49174;43.198;27.824;2022-12-18T07:45:57;103064.41;;;7.31;79.47
63090;BME280;49174;43.198;27.824;2022-12-18T07:48:23;103072.19;;;7.23;78.91
63090;BME280;49174;43.198;27.824;2022-12-18T07:50:48;103077.31;;;7.26;79.68
63090;BME280;49174;43.198;27.824;2022-12-18T07:53:14;103073.66;;;7.27;80.46
63090;BME280;49174;43.198;27.824;2022-12-18T07:55:40;103067.81;;;7.22;80.70
63090;BME280;49174;43.198;27.824;2022-12-18T07:58:07;103066.31;;;7.18;79.85
63090;BME280;49174;43.198;27.824;2022-12-18T08:00:32;103056.56;;;7.16;81.01
63090;BME280;49174;43.198;27.824;2022-12-18T08:02:58;103069.59;;;7.21;80.78
63090;BME280;49174;43.198;27.824;2022-12-18T08:05:24;103075.63;;;7.25;80.83
63090;BME280;49174;43.198;27.824;2022-12-18T08:07:49;103087.06;;;7.27;81.06
63090;BME280;49174;43.198;27.824;2022-12-18T08:10:15;103089.53;;;7.30;80.55
63090;BME280;49174;43.198;27.824;2022-12-18T08:12:41;103095.88;;;7.29;79.80
63090;BME280;49174;43.198;27.824;2022-12-18T08:15:07;103094.03;;;7.29;80.22
63090;BME280;49174;43.198;27.824;2022-12-18T08:17:33;103092.94;;;7.32;79.82
63090;BME280;49174;43.198;27.824;2022-12-18T08:19:58;103085.13;;;7.29;79.05
63090;BME280;49174;43.198;27.824;2022-12-18T08:22:24;103094.66;;;7.22;79.49
63090;BME280;49174;43.198;27.824;2022-12-18T08:24:49;103101.97;;;7.20;79.45
63090;BME280;49174;43.198;27.824;2022-12-18T08:27:15;103093.06;;;7.19;79.63
63090;BME280;49174;43.198;27.824;2022-12-18T08:29:40;103105.97;;;7.14;80.13
63090;BME280;49174;43.198;27.824;2022-12-18T08:32:06;103094.25;;;7.15;80.46
63090;BME280;49174;43.198;27.824;2022-12-18T08:34:31;103097.78;;;7.15;80.50
63090;BME280;49174;43.198;27.824;2022-12-18T08:36:57;103100.94;;;7.09;80.28
63090;BME280;49174;43.198;27.824;2022-12-18T08:39:22;103102.16;;;7.05;80.41
63090;BME280;49174;43.198;27.824;2022-12-18T08:41:49;103104.59;;;7.08;80.12
63090;BME280;49174;43.198;27.824;2022-12-18T08:44:33;103099.09;;;7.10;80.13
63090;BME280;49174;43.198;27.824;2022-12-18T08:47:06;103098.59;;;7.05;80.82
63090;BME280;49174;43.198;27.824;2022-12-18T08:49:32;103092.84;;;6.98;80.25
63090;BME280;49174;43.198;27.824;2022-12-18T08:51:58;103089.88;;;6.90;81.17
63090;BME280;49174;43.198;27.824;2022-12-18T08:54:24;103084.75;;;6.87;81.93
63090;BME280;49174;43.198;27.824;2022-12-18T08:56:50;103084.00;;;6.85;81.71
63090;BME280;49174;43.198;27.824;2022-12-18T08:59:16;103089.34;;;6.85;82.06
63090;BME280;49174;43.198;27.824;2022-12-18T09:01:42;103094.50;;;6.88;81.18
63090;BME280;49174;43.198;27.824;2022-12-18T09:04:09;103094.63;;;6.86;81.58
63090;BME280;49174;43.198;27.824;2022-12-18T09:06:35;103090.91;;;6.76;81.88
63090;BME280;49174;43.198;27.824;2022-12-18T09:09:01;103091.53;;;6.80;81.19
63090;BME280;49174;43.198;27.824;2022-12-18T09:11:28;103083.09;;;6.73;81.79
63090;BME280;49174;43.198;27.824;2022-12-18T09:13:54;103083.28;;;6.83;82.41
63090;BME280;49174;43.198;27.824;2022-12-18T09:16:21;103087.44;;;6.87;81.57
63090;BME280;49174;43.198;27.824;2022-12-18T09:18:47;103090.00;;;6.88;81.65
63090;BME280;49174;43.198;27.824;2022-12-18T09:21:18;103084.97;;;6.84;80.77
63090;BME280;49174;43.198;27.824;2022-12-18T09:23:44;103087.28;;;6.77;81.90
63090;BME280;49174;43.198;27.824;2022-12-18T09:26:10;103096.69;;;6.83;81.61
63090;BME280;49174;43.198;27.824;2022-12-18T09:28:35;103093.25;;;6.81;81.74
63090;BME280;49174;43.198;27.824;2022-12-18T09:31:06;103101.53;;;6.78;81.49
63090;BME280;49174;43.198;27.824;2022-12-18T09:33:34;103105.22;;;6.88;81.30
63090;BME280;49174;43.198;27.824;2022-12-18T09:36:01;103096.22;;;6.89;81.90
63090;BME280;49174;43.198;27.824;2022-12-18T09:38:27;103096.69;;;6.83;81.40
63090;BME280;49174;43.198;27.824;2022-12-18T09:40:57;103094.69;;;6.98;81.98
63090;BME280;49174;43.198;27.824;2022-12-18T09:43:46;103093.69;;;6.99;80.91
63090;BME280;49174;43.198;27.824;2022-12-18T09:46:19;103088.00;;;7.03;81.66
63090;BME280;49174;43.198;27.824;2022-12-18T09:48:50;103082.91;;;7.11;82.26
63090;BME280;49174;43.198;27.824;2022-12-18T09:51:23;103089.84;;;7.14;81.42
63090;BME280;49174;43.198;27.824;2022-12-18T09:53:54;103088.03;;;7.14;81.58
63090;BME280;49174;43.198;27.824;2022-12-18T09:56:22;103083.69;;;7.25;81.72
63090;BME280;49174;43.198;27.824;2022-12-18T09:58:58;103081.97;;;7.35;81.32
63090;BME280;49174;43.198;27.824;2022-12-18T10:01:24;103079.56;;;7.43;80.52
63090;BME280;49174;43.198;27.824;2022-12-18T10:03:52;103077.38;;;7.48;80.87
63090;BME280;49174;43.198;27.824;2022-12-18T10:06:28;103073.47;;;7.52;79.60
63090;BME280;49174;43.198;27.824;2022-12-18T10:09:27;103071.50;;;7.54;79.92
63090;BME280;49174;43.198;27.824;2022-12-18T10:25:16;103066.06;;;7.90;78.43
63090;BME280;49174;43.198;27.824;2022-12-18T10:27:44;103068.97;;;8.09;77.75
63090;BME280;49174;43.198;27.824;2022-12-18T10:30:16;103078.25;;;8.05;76.65
63090;BME280;49174;43.198;27.824;2022-12-18T10:32:42;103071.31;;;8.14;77.85
63090;BME280;49174;43.198;27.824;2022-12-18T10:35:17;103071.53;;;8.22;77.84
63090;BME280;49174;43.198;27.824;2022-12-18T10:41:04;103080.31;;;8.24;77.28
63090;BME280;49174;43.198;27.824;2022-12-18T10:43:38;103080.94;;;8.27;76.15
63090;BME280;49174;43.198;27.824;2022-12-18T10:48:38;103086.06;;;8.53;75.58
63090;BME280;49174;43.198;27.824;2022-12-18T10:51:06;103099.84;;;8.60;75.74
63090;BME280;49174;43.198;27.824;2022-12-18T10:53:34;103107.81;;;8.61;74.68
63090;BME280;49174;43.198;27.824;2022-12-18T10:56:00;103102.41;;;8.72;75.78
63090;BME280;49174;43.198;27.824;2022-12-18T10:58:33;103099.84;;;8.60;74.11
63090;BME280;49174;43.198;27.824;2022-12-18T11:01:17;103102.06;;;8.55;74.66
63090;BME280;49174;43.198;27.824;2022-12-18T11:03:45;103100.22;;;8.55;74.71
63090;BME280;49174;43.198;27.824;2022-12-18T11:08:37;103117.34;;;8.54;75.63
63090;BME280;49174;43.198;27.824;2022-12-18T11:11:04;103120.03;;;8.54;75.86
63090;BME280;49174;43.198;27.824;2022-12-18T11:13:32;103126.44;;;8.42;75.29
63090;BME280;49174;43.198;27.824;2022-12-18T11:15:59;103123.59;;;8.32;74.91
63090;BME280;49174;43.198;27.824;2022-12-18T11:18:30;103121.75;;;8.44;74.51
63090;BME280;49174;43.198;27.824;2022-12-18T11:21:00;103119.69;;;8.47;75.08
63090;BME280;49174;43.198;27.824;2022-12-18T11:23:30;103115.44;;;8.45;74.34
63090;BME280;49174;43.198;27.824;2022-12-18T11:26:00;103119.81;;;8.46;74.89
63090;BME280;49174;43.198;27.824;2022-12-18T11:28:28;103118.47;;;8.40;75.16
63090;BME280;49174;43.198;27.824;2022-12-18T11:31:21;103129.47;;;8.15;76.01
63090;BME280;49174;43.198;27.824;2022-12-18T11:36:25;103118.56;;;7.94;77.62
63090;BME280;49174;43.198;27.824;2022-12-18T11:38:55;103122.13;;;7.83;77.77
63090;BME280;49174;43.198;27.824;2022-12-18T11:41:39;103123.34;;;7.79;78.33
63090;BME280;49174;43.198;27.824;2022-12-18T11:44:35;103117.97;;;7.79;78.37
63090;BME280;49174;43.198;27.824;2022-12-18T11:47:09;103103.78;;;7.88;79.32
63090;BME280;49174;43.198;27.824;2022-12-18T11:49:41;103111.00;;;7.76;79.00
63090;BME280;49174;43.198;27.824;2022-12-18T11:52:18;103111.81;;;7.66;78.99
63090;BME280;49174;43.198;27.824;2022-12-18T11:54:45;103109.25;;;7.53;79.86
63090;BME280;49174;43.198;27.824;2022-12-18T12:00:07;103118.66;;;7.47;80.44
63090;BME280;49174;43.198;27.824;2022-12-18T12:14:23;103140.63;;;7.41;82.87
63090;BME280;49174;43.198;27.824;2022-12-18T12:17:03;103155.84;;;7.41;82.94
63090;BME280;49174;43.198;27.824;2022-12-18T12:22:59;103163.69;;;7.55;82.51
63090;BME280;49174;43.198;27.824;2022-12-18T12:31:03;103173.56;;;7.78;80.58
63090;BME280;49174;43.198;27.824;2022-12-18T12:38:58;103176.19;;;7.56;82.16
63090;BME280;49174;43.198;27.824;2022-12-18T12:41:29;103186.31;;;7.52;81.56
63090;BME280;49174;43.198;27.824;2022-12-18T12:44:25;103178.59;;;7.48;81.92
63090;BME280;49174;43.198;27.824;2022-12-18T12:46:56;103176.25;;;7.43;81.71
63090;BME280;49174;43.198;27.824;2022-12-18T12:49:27;103189.63;;;7.32;81.84
63090;BME280;49174;43.198;27.824;2022-12-18T12:52:00;103194.78;;;7.35;82.48
63090;BME280;49174;43.198;27.824;2022-12-18T12:54:31;103199.41;;;7.33;82.38
63090;BME280;49174;43.198;27.824;2022-12-18T12:57:18;103197.81;;;7.30;83.07
63090;BME280;49174;43.198;27.824;2022-12-18T13:05:30;103195.50;;;7.13;83.75
63090;BME280;49174;43.198;27.824;2022-12-18T13:08:03;103199.56;;;7.19;83.48
63090;BME280;49174;43.198;27.824;2022-12-18T13:10:35;103200.56;;;7.18;82.54
63090;BME280;49174;43.198;27.824;2022-12-18T13:13:03;103203.16;;;7.19;82.97
63090;BME280;49174;43.198;27.824;2022-12-18T13:15:46;103204.78;;;7.33;81.93
63090;BME280;49174;43.198;27.824;2022-12-18T13:18:19;103206.41;;;7.35;80.29
63090;BME280;49174;43.198;27.824;2022-12-18T13:25:58;103226.09;;;7.47;78.86
63090;BME280;49174;43.198;27.824;2022-12-18T13:31:02;103230.16;;;7.53;78.28
63090;BME280;49174;43.198;27.824;2022-12-18T13:36:26;103238.59;;;7.59;74.34
63090;BME280;49174;43.198;27.824;2022-12-18T13:41:40;103246.66;;;7.59;69.70
63090;BME280;49174;43.198;27.824;2022-12-18T13:44:34;103253.97;;;7.57;68.50
63090;BME280;49174;43.198;27.824;2022-12-18T13:47:01;103262.16;;;7.56;69.35
63090;BME280;49174;43.198;27.824;2022-12-18T13:49:43;103264.50;;;7.60;69.23
63090;BME280;49174;43.198;27.824;2022-12-18T13:52:36;103262.53;;;7.63;69.37
63090;BME280;49174;43.198;27.824;2022-12-18T13:55:06;103275.25;;;7.60;66.34
63090;BME280;49174;43.198;27.824;2022-12-18T13:57:35;103282.16;;;7.52;65.99
63090;BME280;49174;43.198;27.824;2022-12-18T14:02:48;103291.56;;;7.57;66.39
63090;BME280;49174;43.198;27.824;2022-12-18T14:05:27;103296.09;;;7.57;66.11
63090;BME280;49174;43.198;27.824;2022-12-18T14:07:53;103286.34;;;7.56;66.36
63090;BME280;49174;43.198;27.824;2022-12-18T14:10:20;103295.34;;;7.55;65.99
63090;BME280;49174;43.198;27.824;2022-12-18T14:12:48;103295.00;;;7.59;65.67
63090;BME280;49174;43.198;27.824;2022-12-18T14:18:19;103299.72;;;7.45;67.39
63090;BME280;49174;43.198;27.824;2022-12-18T14:20:47;103299.63;;;7.57;66.34
63090;BME280;49174;43.198;27.824;2022-12-18T14:25:53;103301.47;;;7.57;68.04
63090;BME280;49174;43.198;27.824;2022-12-18T14:28:19;103313.31;;;7.54;67.79
63090;BME280;49174;43.198;27.824;2022-12-18T14:30:47;103324.69;;;7.58;67.75
63090;BME280;49174;43.198;27.824;2022-12-18T14:35:56;103340.53;;;7.50;68.84
63090;BME280;49174;43.198;27.824;2022-12-18T14:38:29;103338.84;;;7.60;70.11
63090;BME280;49174;43.198;27.824;2022-12-18T14:59:49;103353.47;;;7.32;70.96
63090;BME280;49174;43.198;27.824;2022-12-18T15:12:47;103367.78;;;7.20;70.72
63090;BME280;49174;43.198;27.824;2022-12-18T15:20:40;103385.41;;;7.11;72.58
63090;BME280;49174;43.198;27.824;2022-12-18T15:31:40;103393.78;;;7.19;68.82
63090;BME280;49174;43.198;27.824;2022-12-18T15:34:12;103395.81;;;7.15;69.41
63090;BME280;49174;43.198;27.824;2022-12-18T15:36:39;103400.53;;;7.25;67.68
63090;BME280;49174;43.198;27.824;2022-12-18T15:39:05;103401.50;;;7.24;67.27
63090;BME280;49174;43.198;27.824;2022-12-18T15:41:35;103401.25;;;7.27;67.13
63090;BME280;49174;43.198;27.824;2022-12-18T15:44:02;103410.53;;;7.23;67.99
63090;BME280;49174;43.198;27.824;2022-12-18T15:46:27;103415.34;;;7.18;68.95
63090;BME280;49174;43.198;27.824;2022-12-18T15:48:56;103414.38;;;7.19;69.35
63090;BME280;49174;43.198;27.824;2022-12-18T15:54:29;103415.03;;;7.22;68.95
63090;BME280;49174;43.198;27.824;2022-12-18T16:05:37;103431.16;;;7.09;69.35
63090;BME280;49174;43.198;27.824;2022-12-18T16:08:03;103441.47;;;7.03;69.18
63090;BME280;49174;43.198;27.824;2022-12-18T16:10:29;103450.69;;;6.99;69.92
63090;BME280;49174;43.198;27.824;2022-12-18T16:12:55;103448.00;;;6.99;70.62
63090;BME280;49174;43.198;27.824;2022-12-18T16:20:59;103456.91;;;6.99;69.72
63090;BME280;49174;43.198;27.824;2022-12-18T16:23:24;103460.34;;;7.01;69.77
63090;BME280;49174;43.198;27.824;2022-12-18T16:25:50;103462.94;;;7.03;70.45
63090;BME280;49174;43.198;27.824;2022-12-18T16:28:17;103468.09;;;7.06;70.56
63090;BME280;49174;43.198;27.824;2022-12-18T16:30:42;103464.66;;;7.16;69.28
63090;BME280;49174;43.198;27.824;2022-12-18T16:33:09;103464.34;;;7.08;70.43
63090;BME280;49174;43.198;27.824;2022-12-18T16:35:35;103463.03;;;7.01;70.14
63090;BME280;49174;43.198;27.824;2022-12-18T16:38:02;103460.78;;;6.95;70.73
63090;BME280;49174;43.198;27.824;2022-12-18T16:40:28;103458.88;;;6.97;70.50
63090;BME280;49174;43.198;27.824;2022-12-18T16:42:56;103467.78;;;6.98;70.60
63090;BME280;49174;43.198;27.824;2022-12-18T16:45:22;103470.22;;;6.88;70.52
63090;BME280;49174;43.198;27.824;2022-12-18T16:47:47;103465.63;;;6.90;71.41
63090;BME280;49174;43.198;27.824;2022-12-18T16:50:13;103471.50;;;6.82;72.24
63090;BME280;49174;43.198;27.824;2022-12-18T16:52:41;103487.84;;;6.92;71.83
63090;BME280;49174;43.198;27.824;2022-12-18T16:55:06;103488.81;;;6.91;71.37
63090;BME280;49174;43.198;27.824;2022-12-18T17:00:14;103492.41;;;6.64;72.79
63090;BME280;49174;43.198;27.824;2022-12-18T17:02:40;103498.97;;;6.73;69.70
63090;BME280;49174;43.198;27.824;2022-12-18T17:05:06;103498.84;;;6.62;69.14
63090;BME280;49174;43.198;27.824;2022-12-18T17:07:31;103501.28;;;6.52;69.52
63090;BME280;49174;43.198;27.824;2022-12-18T17:09:57;103506.84;;;6.49;70.18
63090;BME280;49174;43.198;27.824;2022-12-18T17:15:06;103512.81;;;6.40;68.77
63090;BME280;49174;43.198;27.824;2022-12-18T17:17:32;103504.53;;;6.30;69.58
63090;BME280;49174;43.198;27.824;2022-12-18T17:19:58;103510.84;;;6.29;69.79
63090;BME280;49174;43.198;27.824;2022-12-18T17:22:23;103511.53;;;6.33;69.66
63090;BME280;49174;43.198;27.824;2022-12-18T17:24:49;103523.66;;;6.38;69.16
63090;BME280;49174;43.198;27.824;2022-12-18T17:27:15;103515.84;;;6.35;69.78
63090;BME280;49174;43.198;27.824;2022-12-18T17:40:47;103525.88;;;6.32;68.89
63090;BME280;49174;43.198;27.824;2022-12-18T17:48:47;103539.97;;;6.35;68.53
63090;BME280;49174;43.198;27.824;2022-12-18T17:51:14;103548.19;;;6.32;68.44
63090;BME280;49174;43.198;27.824;2022-12-18T17:56:17;103558.25;;;6.29;68.08
63090;BME280;49174;43.198;27.824;2022-12-18T17:58:44;103550.34;;;6.27;68.71
63090;BME280;49174;43.198;27.824;2022-12-18T18:06:57;103544.69;;;6.17;68.39
63090;BME280;49174;43.198;27.824;2022-12-18T18:14:47;103549.41;;;6.14;66.30
63090;BME280;49174;43.198;27.824;2022-12-18T18:17:12;103551.59;;;5.93;65.04
63090;BME280;49174;43.198;27.824;2022-12-18T18:22:18;103561.25;;;6.10;64.82
63090;BME280;49174;43.198;27.824;2022-12-18T18:24:44;103560.53;;;6.08;62.72
63090;BME280;49174;43.198;27.824;2022-12-18T18:27:11;103559.63;;;6.07;63.21
63090;BME280;49174;43.198;27.824;2022-12-18T18:29:37;103567.69;;;6.07;64.47
63090;BME280;49174;43.198;27.824;2022-12-18T18:32:03;103579.75;;;6.00;66.00
63090;BME280;49174;43.198;27.824;2022-12-18T18:40:02;103587.78;;;5.86;68.26
63090;BME280;49174;43.198;27.824;2022-12-18T18:42:28;103584.53;;;5.80;68.63
63090;BME280;49174;43.198;27.824;2022-12-18T18:44:54;103589.38;;;5.74;69.75
63090;BME280;49174;43.198;27.824;2022-12-18T18:47:20;103595.81;;;5.71;70.14
63090;BME280;49174;43.198;27.824;2022-12-18T18:49:46;103598.69;;;5.82;70.77
63090;BME280;49174;43.198;27.824;2022-12-18T18:54:48;103602.13;;;5.85;70.00
63090;BME280;49174;43.198;27.824;2022-12-18T18:57:14;103609.59;;;5.79;69.74
63090;BME280;49174;43.198;27.824;2022-12-18T18:59:40;103612.38;;;5.78;71.03
63090;BME280;49174;43.198;27.824;2022-12-18T19:02:10;103609.69;;;5.64;68.28
63090;BME280;49174;43.198;27.824;2022-12-18T19:04:36;103625.66;;;5.65;68.88
63090;BME280;49174;43.198;27.824;2022-12-18T19:07:02;103619.03;;;5.56;68.16
63090;BME280;49174;43.198;27.824;2022-12-18T19:09:28;103624.84;;;5.49;68.98
63090;BME280;49174;43.198;27.824;2022-12-18T19:11:54;103624.78;;;5.50;69.02
63090;BME280;49174;43.198;27.824;2022-12-18T19:14:38;103638.94;;;5.52;68.63
63090;BME280;49174;43.198;27.824;2022-12-18T19:17:04;103629.72;;;5.42;66.92
63090;BME280;49174;43.198;27.824;2022-12-18T19:19:29;103635.94;;;5.43;69.17
63090;BME280;49174;43.198;27.824;2022-12-18T19:21:55;103624.47;;;5.41;68.77
63090;BME280;49174;43.198;27.824;2022-12-18T19:24:21;103631.19;;;5.48;69.19
63090;BME280;49174;43.198;27.824;2022-12-18T19:26:47;103632.88;;;5.49;67.79
63090;BME280;49174;43.198;27.824;2022-12-18T19:31:55;103625.22;;;5.43;70.12
63090;BME280;49174;43.198;27.824;2022-12-18T19:34:21;103622.16;;;5.34;69.63
63090;BME280;49174;43.198;27.824;2022-12-18T19:36:46;103628.91;;;5.26;69.31
63090;BME280;49174;43.198;27.824;2022-12-18T19:39:17;103627.28;;;5.23;70.94
63090;BME280;49174;43.198;27.824;2022-12-18T19:41:43;103635.91;;;5.28;70.89
63090;BME280;49174;43.198;27.824;2022-12-18T19:44:14;103636.34;;;5.21;70.81
63090;BME280;49174;43.198;27.824;2022-12-18T19:46:40;103637.75;;;5.12;72.98
63090;BME280;49174;43.198;27.824;2022-12-18T19:49:08;103639.41;;;5.14;72.38
63090;BME280;49174;43.198;27.824;2022-12-18T19:51:33;103651.50;;;5.06;72.95
63090;BME280;49174;43.198;27.824;2022-12-18T19:54:00;103640.81;;;5.06;72.34
63090;BME280;49174;43.198;27.824;2022-12-18T19:56:29;103636.50;;;5.03;72.20
63090;BME280;49174;43.198;27.824;2022-12-18T19:58:55;103633.94;;;5.02;73.62
63090;BME280;49174;43.198;27.824;2022-12-18T20:01:22;103633.31;;;4.97;72.22
63090;BME280;49174;43.198;27.824;2022-12-18T20:03:49;103632.53;;;4.95;71.82
63090;BME280;49174;43.198;27.824;2022-12-18T20:06:30;103632.97;;;4.87;72.45
63090;BME280;49174;43.198;27.824;2022-12-18T20:08:58;103640.06;;;4.88;72.11
63090;BME280;49174;43.198;27.824;2022-12-18T20:11:25;103651.63;;;4.88;71.67
63090;BME280;49174;43.198;27.824;2022-12-18T20:13:51;103658.09;;;4.84;71.74
63090;BME280;49174;43.198;27.824;2022-12-18T20:16:16;103645.75;;;4.82;72.82
63090;BME280;49174;43.198;27.824;2022-12-18T20:18:42;103645.25;;;4.75;71.51
63090;BME280;49174;43.198;27.824;2022-12-18T20:21:10;103654.31;;;4.73;72.25
63090;BME280;49174;43.198;27.824;2022-12-18T20:23:36;103655.44;;;4.68;70.56
63090;BME280;49174;43.198;27.824;2022-12-18T20:26:42;103648.34;;;4.67;70.81
63090;BME280;49174;43.198;27.824;2022-12-18T20:43:50;103665.19;;;4.54;72.61
63090;BME280;49174;43.198;27.824;2022-12-18T20:46:16;103674.94;;;4.55;72.47
63090;BME280;49174;43.198;27.824;2022-12-18T20:48:43;103661.75;;;4.52;71.23
63090;BME280;49174;43.198;27.824;2022-12-18T20:51:12;103667.78;;;4.55;70.99
63090;BME280;49174;43.198;27.824;2022-12-18T20:56:21;103678.66;;;4.52;69.41
63090;BME280;49174;43.198;27.824;2022-12-18T20:58:48;103672.63;;;4.48;69.21
63090;BME280;49174;43.198;27.824;2022-12-18T21:01:17;103675.19;;;4.50;70.21
63090;BME280;49174;43.198;27.824;2022-12-18T21:03:44;103674.16;;;4.53;70.92
63090;BME280;49174;43.198;27.824;2022-12-18T21:06:13;103677.78;;;4.52;69.73
63090;BME280;49174;43.198;27.824;2022-12-18T21:08:39;103683.72;;;4.57;70.19
63090;BME280;49174;43.198;27.824;2022-12-18T21:11:15;103694.00;;;4.48;70.31
63090;BME280;49174;43.198;27.824;2022-12-18T21:14:01;103696.38;;;4.37;69.00
63090;BME280;49174;43.198;27.824;2022-12-18T21:16:27;103702.84;;;4.33;69.69
63090;BME280;49174;43.198;27.824;2022-12-18T21:18:53;103706.72;;;4.28;70.66
63090;BME280;49174;43.198;27.824;2022-12-18T21:21:18;103713.63;;;4.32;71.01
63090;BME280;49174;43.198;27.824;2022-12-18T21:23:44;103707.34;;;4.33;69.46
63090;BME280;49174;43.198;27.824;2022-12-18T21:26:16;103709.81;;;4.20;69.33
63090;BME280;49174;43.198;27.824;2022-12-18T21:28:42;103718.59;;;4.22;69.87
63090;BME280;49174;43.198;27.824;2022-12-18T21:31:09;103715.31;;;4.17;69.09
63090;BME280;49174;43.198;27.824;2022-12-18T21:33:42;103713.84;;;4.11;69.84
63090;BME280;49174;43.198;27.824;2022-12-18T21:47:03;103701.16;;;4.15;68.69
63090;BME280;49174;43.198;27.824;2022-12-18T21:49:30;103706.66;;;4.12;69.04
63090;BME280;49174;43.198;27.824;2022-12-18T21:51:57;103708.41;;;4.13;69.00
63090;BME280;49174;43.198;27.824;2022-12-18T21:54:25;103712.00;;;4.12;69.02
63090;BME280;49174;43.198;27.824;2022-12-18T21:59:37;103719.09;;;4.13;69.17
63090;BME280;49174;43.198;27.824;2022-12-18T22:02:13;103722.63;;;4.13;68.94
63090;BME280;49174;43.198;27.824;2022-12-18T22:04:39;103722.03;;;3.91;69.69
63090;BME280;49174;43.198;27.824;2022-12-18T22:07:05;103712.91;;;3.95;71.10
63090;BME280;49174;43.198;27.824;2022-12-18T22:09:31;103718.66;;;4.05;69.82
63090;BME280;49174;43.198;27.824;2022-12-18T22:11:57;103717.19;;;4.15;69.27
63090;BME280;49174;43.198;27.824;2022-12-18T22:14:23;103716.56;;;4.27;69.44